sensor_id;sensor_type;location;lat;lon;timestamp;P1;durP1;ratioP1;P2;durP2;ratioP2
35602;SDS011;21725;50.836;4.368;2022-10-28T00:01:36;13.32;;;4.75;;
35602;SDS011;21725;50.836;4.368;2022-10-28T00:04:05;11.93;;;4.50;;
35602;SDS011;21725;50.836;4.368;2022-10-28T00:06:40;9.80;;;3.97;;
35602;SDS011;21725;50.836;4.368;2022-10-28T00:09:09;13.70;;;3.95;;
35602;SDS011;21725;50.836;4.368;2022-10-28T00:11:35;14.57;;;4.00;;
35602;SDS011;21725;50.836;4.368;2022-10-28T00:14:08;14.68;;;4.00;;
35602;SDS011;21725;50.836;4.368;2022-10-28T00:16:39;14.48;;;4.63;;
35602;SDS011;21725;50.836;4.368;2022-10-28T00:19:09;15.07;;;4.68;;
35602;SDS011;21725;50.836;4.368;2022-10-28T00:21:47;13.50;;;4.50;;
35602;SDS011;21725;50.836;4.368;2022-10-28T00:24:47;14.23;;;4.25;;
35602;SDS011;21725;50.836;4.368;2022-10-28T00:27:13;14.48;;;4.57;;
35602;SDS011;21725;50.836;4.368;2022-10-28T00:29:49;18.13;;;4.80;;
35602;SDS011;21725;50.836;4.368;2022-10-28T00:32:21;13.05;;;4.38;;
35602;SDS011;21725;50.836;4.368;2022-10-28T00:34:55;11.57;;;3.65;;
35602;SDS011;21725;50.836;4.368;2022-10-28T00:37:24;12.43;;;3.80;;
35602;SDS011;21725;50.836;4.368;2022-10-28T00:39:59;17.65;;;4.95;;
35602;SDS011;21725;50.836;4.368;2022-10-28T00:42:26;13.93;;;4.20;;
35602;SDS011;21725;50.836;4.368;2022-10-28T00:45:11;8.52;;;3.83;;
35602;SDS011;21725;50.836;4.368;2022-10-28T00:47:44;12.65;;;3.95;;
35602;SDS011;21725;50.836;4.368;2022-10-28T00:50:43;8.75;;;4.70;;
35602;SDS011;21725;50.836;4.368;2022-10-28T00:53:22;16.95;;;4.00;;
35602;SDS011;21725;50.836;4.368;2022-10-28T00:55:52;17.00;;;4.95;;
35602;SDS011;21725;50.836;4.368;2022-10-28T00:58:23;11.02;;;4.75;;
35602;SDS011;21725;50.836;4.368;2022-10-28T01:00:53;10.75;;;3.13;;
35602;SDS011;21725;50.836;4.368;2022-10-28T01:03:22;21.65;;;4.97;;
35602;SDS011;21725;50.836;4.368;2022-10-28T01:06:03;10.27;;;3.95;;
35602;SDS011;21725;50.836;4.368;2022-10-28T01:08:33;26.30;;;5.05;;
35602;SDS011;21725;50.836;4.368;2022-10-28T01:11:08;13.18;;;3.83;;
35602;SDS011;21725;50.836;4.368;2022-10-28T01:29:36;14.35;;;4.75;;
35602;SDS011;21725;50.836;4.368;2022-10-28T01:40:24;15.15;;;5.13;;
35602;SDS011;21725;50.836;4.368;2022-10-28T01:43:08;17.75;;;4.43;;
35602;SDS011;21725;50.836;4.368;2022-10-28T01:45:53;21.10;;;4.00;;
35602;SDS011;21725;50.836;4.368;2022-10-28T01:51:32;10.88;;;4.90;;
35602;SDS011;21725;50.836;4.368;2022-10-28T01:54:04;15.05;;;4.90;;
35602;SDS011;21725;50.836;4.368;2022-10-28T01:56:35;6.57;;;3.15;;
35602;SDS011;21725;50.836;4.368;2022-10-28T01:59:18;14.25;;;5.15;;
35602;SDS011;21725;50.836;4.368;2022-10-28T02:01:59;10.43;;;3.85;;
35602;SDS011;21725;50.836;4.368;2022-10-28T02:04:36;11.57;;;3.33;;
35602;SDS011;21725;50.836;4.368;2022-10-28T02:07:08;12.77;;;3.50;;
35602;SDS011;21725;50.836;4.368;2022-10-28T02:12:41;16.75;;;4.20;;
35602;SDS011;21725;50.836;4.368;2022-10-28T02:15:27;14.32;;;4.72;;
35602;SDS011;21725;50.836;4.368;2022-10-28T02:20:58;13.45;;;3.95;;
35602;SDS011;21725;50.836;4.368;2022-10-28T02:23:37;20.55;;;4.05;;
35602;SDS011;21725;50.836;4.368;2022-10-28T02:26:23;9.32;;;3.65;;
35602;SDS011;21725;50.836;4.368;2022-10-28T02:29:13;17.77;;;4.47;;
35602;SDS011;21725;50.836;4.368;2022-10-28T02:31:49;11.63;;;4.40;;
35602;SDS011;21725;50.836;4.368;2022-10-28T02:34:30;17.63;;;4.28;;
35602;SDS011;21725;50.836;4.368;2022-10-28T02:37:05;12.73;;;4.53;;
35602;SDS011;21725;50.836;4.368;2022-10-28T02:39:45;24.58;;;5.78;;
35602;SDS011;21725;50.836;4.368;2022-10-28T02:42:18;13.63;;;3.85;;
35602;SDS011;21725;50.836;4.368;2022-10-28T02:44:55;12.63;;;4.93;;
35602;SDS011;21725;50.836;4.368;2022-10-28T02:47:32;16.40;;;5.00;;
35602;SDS011;21725;50.836;4.368;2022-10-28T02:50:21;8.82;;;4.05;;
35602;SDS011;21725;50.836;4.368;2022-10-28T02:52:57;18.25;;;4.60;;
35602;SDS011;21725;50.836;4.368;2022-10-28T02:55:51;10.10;;;4.00;;
35602;SDS011;21725;50.836;4.368;2022-10-28T02:58:24;15.90;;;3.97;;
35602;SDS011;21725;50.836;4.368;2022-10-28T03:01:01;16.00;;;4.57;;
35602;SDS011;21725;50.836;4.368;2022-10-28T03:03:41;13.40;;;4.43;;
35602;SDS011;21725;50.836;4.368;2022-10-28T03:06:14;13.00;;;3.95;;
35602;SDS011;21725;50.836;4.368;2022-10-28T03:08:47;25.15;;;4.18;;
35602;SDS011;21725;50.836;4.368;2022-10-28T03:11:22;12.05;;;4.43;;
35602;SDS011;21725;50.836;4.368;2022-10-28T03:13:58;19.25;;;5.15;;
35602;SDS011;21725;50.836;4.368;2022-10-28T03:16:28;11.88;;;4.20;;
35602;SDS011;21725;50.836;4.368;2022-10-28T03:19:01;14.68;;;5.55;;
35602;SDS011;21725;50.836;4.368;2022-10-28T03:21:34;11.57;;;3.95;;
35602;SDS011;21725;50.836;4.368;2022-10-28T03:24:10;17.80;;;5.05;;
35602;SDS011;21725;50.836;4.368;2022-10-28T03:26:40;11.00;;;4.07;;
35602;SDS011;21725;50.836;4.368;2022-10-28T03:29:08;13.80;;;4.85;;
35602;SDS011;21725;50.836;4.368;2022-10-28T03:31:37;12.45;;;4.72;;
35602;SDS011;21725;50.836;4.368;2022-10-28T03:34:06;13.02;;;4.50;;
35602;SDS011;21725;50.836;4.368;2022-10-28T03:36:32;12.77;;;3.67;;
35602;SDS011;21725;50.836;4.368;2022-10-28T03:39:25;15.68;;;4.25;;
35602;SDS011;21725;50.836;4.368;2022-10-28T03:42:07;15.15;;;4.20;;
35602;SDS011;21725;50.836;4.368;2022-10-28T03:44:34;10.88;;;4.43;;
35602;SDS011;21725;50.836;4.368;2022-10-28T03:47:00;14.60;;;4.85;;
35602;SDS011;21725;50.836;4.368;2022-10-28T03:49:28;13.50;;;5.05;;
35602;SDS011;21725;50.836;4.368;2022-10-28T03:51:57;18.13;;;5.35;;
35602;SDS011;21725;50.836;4.368;2022-10-28T03:54:28;11.95;;;3.85;;
35602;SDS011;21725;50.836;4.368;2022-10-28T03:57:14;16.85;;;4.65;;
35602;SDS011;21725;50.836;4.368;2022-10-28T03:59:52;17.40;;;5.15;;
35602;SDS011;21725;50.836;4.368;2022-10-28T04:02:21;11.90;;;4.30;;
35602;SDS011;21725;50.836;4.368;2022-10-28T04:04:51;16.10;;;3.83;;
35602;SDS011;21725;50.836;4.368;2022-10-28T04:07:17;13.73;;;3.78;;
35602;SDS011;21725;50.836;4.368;2022-10-28T04:09:51;17.45;;;4.03;;
35602;SDS011;21725;50.836;4.368;2022-10-28T04:12:20;13.55;;;4.35;;
35602;SDS011;21725;50.836;4.368;2022-10-28T04:14:49;10.15;;;5.38;;
35602;SDS011;21725;50.836;4.368;2022-10-28T04:23:21;11.52;;;3.67;;
35602;SDS011;21725;50.836;4.368;2022-10-28T04:26:01;13.15;;;4.45;;
35602;SDS011;21725;50.836;4.368;2022-10-28T04:28:35;15.30;;;4.13;;
35602;SDS011;21725;50.836;4.368;2022-10-28T04:31:06;15.30;;;5.15;;
35602;SDS011;21725;50.836;4.368;2022-10-28T04:34:00;21.33;;;6.05;;
35602;SDS011;21725;50.836;4.368;2022-10-28T04:36:26;17.58;;;4.47;;
35602;SDS011;21725;50.836;4.368;2022-10-28T04:39:00;11.60;;;4.43;;
35602;SDS011;21725;50.836;4.368;2022-10-28T04:41:41;21.05;;;5.68;;
35602;SDS011;21725;50.836;4.368;2022-10-28T04:44:10;18.13;;;5.32;;
35602;SDS011;21725;50.836;4.368;2022-10-28T04:46:39;14.27;;;4.93;;
35602;SDS011;21725;50.836;4.368;2022-10-28T04:49:25;13.40;;;4.55;;
35602;SDS011;21725;50.836;4.368;2022-10-28T04:51:54;11.25;;;4.65;;
35602;SDS011;21725;50.836;4.368;2022-10-28T04:54:30;16.58;;;4.30;;
35602;SDS011;21725;50.836;4.368;2022-10-28T04:57:00;14.30;;;4.60;;
35602;SDS011;21725;50.836;4.368;2022-10-28T04:59:35;16.90;;;4.25;;
35602;SDS011;21725;50.836;4.368;2022-10-28T05:02:01;14.30;;;4.82;;
35602;SDS011;21725;50.836;4.368;2022-10-28T05:04:38;12.27;;;3.88;;
35602;SDS011;21725;50.836;4.368;2022-10-28T05:07:08;16.42;;;5.40;;
35602;SDS011;21725;50.836;4.368;2022-10-28T05:09:54;15.23;;;4.95;;
35602;SDS011;21725;50.836;4.368;2022-10-28T05:12:34;15.25;;;3.95;;
35602;SDS011;21725;50.836;4.368;2022-10-28T05:15:00;12.32;;;4.47;;
35602;SDS011;21725;50.836;4.368;2022-10-28T05:17:29;14.60;;;5.63;;
35602;SDS011;21725;50.836;4.368;2022-10-28T05:19:56;18.58;;;5.13;;
35602;SDS011;21725;50.836;4.368;2022-10-28T05:22:25;16.63;;;4.57;;
35602;SDS011;21725;50.836;4.368;2022-10-28T05:24:56;12.63;;;4.70;;
35602;SDS011;21725;50.836;4.368;2022-10-28T05:27:24;18.30;;;5.53;;
35602;SDS011;21725;50.836;4.368;2022-10-28T05:29:54;12.25;;;4.13;;
35602;SDS011;21725;50.836;4.368;2022-10-28T05:32:43;10.95;;;5.03;;
35602;SDS011;21725;50.836;4.368;2022-10-28T05:35:14;13.82;;;5.25;;
35602;SDS011;21725;50.836;4.368;2022-10-28T05:37:47;19.20;;;5.55;;
35602;SDS011;21725;50.836;4.368;2022-10-28T05:40:17;12.50;;;5.18;;
35602;SDS011;21725;50.836;4.368;2022-10-28T05:42:49;15.10;;;5.05;;
35602;SDS011;21725;50.836;4.368;2022-10-28T05:45:17;14.13;;;4.70;;
35602;SDS011;21725;50.836;4.368;2022-10-28T05:47:51;15.57;;;5.30;;
35602;SDS011;21725;50.836;4.368;2022-10-28T05:50:20;12.65;;;4.13;;
35602;SDS011;21725;50.836;4.368;2022-10-28T05:52:55;18.92;;;4.80;;
35602;SDS011;21725;50.836;4.368;2022-10-28T05:55:25;16.02;;;3.75;;
35602;SDS011;21725;50.836;4.368;2022-10-28T05:58:02;20.00;;;6.20;;
35602;SDS011;21725;50.836;4.368;2022-10-28T06:00:42;15.43;;;4.90;;
35602;SDS011;21725;50.836;4.368;2022-10-28T06:03:09;13.88;;;4.45;;
35602;SDS011;21725;50.836;4.368;2022-10-28T06:05:36;17.88;;;5.05;;
35602;SDS011;21725;50.836;4.368;2022-10-28T06:08:06;11.20;;;4.38;;
35602;SDS011;21725;50.836;4.368;2022-10-28T06:10:37;20.67;;;5.50;;
35602;SDS011;21725;50.836;4.368;2022-10-28T06:15:55;13.63;;;5.05;;
35602;SDS011;21725;50.836;4.368;2022-10-28T06:18:22;12.50;;;5.70;;
35602;SDS011;21725;50.836;4.368;2022-10-28T06:23:42;14.73;;;4.18;;
35602;SDS011;21725;50.836;4.368;2022-10-28T06:26:20;11.93;;;4.63;;
35602;SDS011;21725;50.836;4.368;2022-10-28T06:29:04;16.10;;;5.65;;
35602;SDS011;21725;50.836;4.368;2022-10-28T06:31:44;14.65;;;5.35;;
35602;SDS011;21725;50.836;4.368;2022-10-28T06:34:18;16.92;;;4.95;;
35602;SDS011;21725;50.836;4.368;2022-10-28T06:36:44;18.40;;;4.45;;
35602;SDS011;21725;50.836;4.368;2022-10-28T06:39:11;41.88;;;7.88;;
35602;SDS011;21725;50.836;4.368;2022-10-28T06:41:38;15.93;;;5.25;;
35602;SDS011;21725;50.836;4.368;2022-10-28T06:44:07;38.38;;;8.30;;
35602;SDS011;21725;50.836;4.368;2022-10-28T06:46:40;13.32;;;4.82;;
35602;SDS011;21725;50.836;4.368;2022-10-28T06:49:16;15.57;;;5.13;;
35602;SDS011;21725;50.836;4.368;2022-10-28T06:51:52;17.50;;;4.00;;
35602;SDS011;21725;50.836;4.368;2022-10-28T06:54:32;19.40;;;5.70;;
35602;SDS011;21725;50.836;4.368;2022-10-28T06:57:10;14.68;;;4.50;;
35602;SDS011;21725;50.836;4.368;2022-10-28T06:59:47;9.77;;;4.13;;
35602;SDS011;21725;50.836;4.368;2022-10-28T07:02:30;9.75;;;4.90;;
35602;SDS011;21725;50.836;4.368;2022-10-28T07:05:01;13.88;;;4.40;;
35602;SDS011;21725;50.836;4.368;2022-10-28T07:07:31;13.75;;;4.03;;
35602;SDS011;21725;50.836;4.368;2022-10-28T07:10:02;14.02;;;4.65;;
35602;SDS011;21725;50.836;4.368;2022-10-28T07:12:30;20.23;;;5.63;;
35602;SDS011;21725;50.836;4.368;2022-10-28T07:15:06;13.90;;;5.28;;
35602;SDS011;21725;50.836;4.368;2022-10-28T07:17:36;16.63;;;5.50;;
35602;SDS011;21725;50.836;4.368;2022-10-28T07:20:10;21.00;;;6.22;;
35602;SDS011;21725;50.836;4.368;2022-10-28T07:22:39;22.02;;;5.32;;
35602;SDS011;21725;50.836;4.368;2022-10-28T07:25:15;14.15;;;4.70;;
35602;SDS011;21725;50.836;4.368;2022-10-28T07:27:44;17.60;;;6.60;;
35602;SDS011;21725;50.836;4.368;2022-10-28T07:30:11;16.67;;;5.78;;
35602;SDS011;21725;50.836;4.368;2022-10-28T07:32:41;15.95;;;5.75;;
35602;SDS011;21725;50.836;4.368;2022-10-28T07:35:08;11.32;;;4.80;;
35602;SDS011;21725;50.836;4.368;2022-10-28T07:37:39;13.20;;;4.45;;
35602;SDS011;21725;50.836;4.368;2022-10-28T07:43:10;19.42;;;6.85;;
35602;SDS011;21725;50.836;4.368;2022-10-28T07:45:37;13.77;;;4.93;;
35602;SDS011;21725;50.836;4.368;2022-10-28T07:48:10;12.30;;;4.47;;
35602;SDS011;21725;50.836;4.368;2022-10-28T07:51:02;20.95;;;5.93;;
35602;SDS011;21725;50.836;4.368;2022-10-28T07:53:42;17.58;;;5.57;;
35602;SDS011;21725;50.836;4.368;2022-10-28T07:56:16;13.88;;;5.03;;
35602;SDS011;21725;50.836;4.368;2022-10-28T07:58:42;18.13;;;4.38;;
35602;SDS011;21725;50.836;4.368;2022-10-28T08:01:20;14.13;;;4.70;;
35602;SDS011;21725;50.836;4.368;2022-10-28T08:03:46;17.20;;;5.88;;
35602;SDS011;21725;50.836;4.368;2022-10-28T08:06:15;20.02;;;6.40;;
35602;SDS011;21725;50.836;4.368;2022-10-28T08:08:52;15.98;;;5.65;;
35602;SDS011;21725;50.836;4.368;2022-10-28T08:11:28;17.98;;;5.72;;
35602;SDS011;21725;50.836;4.368;2022-10-28T08:14:27;31.30;;;6.63;;
35602;SDS011;21725;50.836;4.368;2022-10-28T08:17:03;11.93;;;4.90;;
35602;SDS011;21725;50.836;4.368;2022-10-28T08:19:29;25.80;;;6.28;;
35602;SDS011;21725;50.836;4.368;2022-10-28T08:22:13;18.20;;;5.57;;
35602;SDS011;21725;50.836;4.368;2022-10-28T08:24:42;15.50;;;4.97;;
35602;SDS011;21725;50.836;4.368;2022-10-28T08:27:09;18.92;;;5.53;;
35602;SDS011;21725;50.836;4.368;2022-10-28T08:29:39;16.75;;;4.70;;
35602;SDS011;21725;50.836;4.368;2022-10-28T08:32:31;15.43;;;4.93;;
35602;SDS011;21725;50.836;4.368;2022-10-28T08:35:14;20.23;;;5.43;;
35602;SDS011;21725;50.836;4.368;2022-10-28T08:37:44;14.45;;;4.40;;
35602;SDS011;21725;50.836;4.368;2022-10-28T08:40:15;17.40;;;4.70;;
35602;SDS011;21725;50.836;4.368;2022-10-28T08:42:51;24.73;;;6.85;;
35602;SDS011;21725;50.836;4.368;2022-10-28T08:49:17;13.88;;;5.35;;
35602;SDS011;21725;50.836;4.368;2022-10-28T08:54:58;22.83;;;6.30;;
35602;SDS011;21725;50.836;4.368;2022-10-28T08:57:56;16.48;;;4.65;;
35602;SDS011;21725;50.836;4.368;2022-10-28T09:00:36;14.77;;;5.78;;
35602;SDS011;21725;50.836;4.368;2022-10-28T09:05:47;18.10;;;5.53;;
35602;SDS011;21725;50.836;4.368;2022-10-28T09:08:41;12.90;;;5.25;;
35602;SDS011;21725;50.836;4.368;2022-10-28T09:16:45;20.77;;;5.68;;
35602;SDS011;21725;50.836;4.368;2022-10-28T09:19:44;16.95;;;4.45;;
35602;SDS011;21725;50.836;4.368;2022-10-28T09:22:44;17.50;;;5.07;;
35602;SDS011;21725;50.836;4.368;2022-10-28T09:25:50;16.35;;;5.90;;
35602;SDS011;21725;50.836;4.368;2022-10-28T09:36:48;13.20;;;5.10;;
35602;SDS011;21725;50.836;4.368;2022-10-28T09:39:28;12.48;;;4.78;;
35602;SDS011;21725;50.836;4.368;2022-10-28T09:42:08;21.85;;;6.93;;
35602;SDS011;21725;50.836;4.368;2022-10-28T09:47:21;15.40;;;7.22;;
35602;SDS011;21725;50.836;4.368;2022-10-28T09:55:44;19.42;;;4.75;;
35602;SDS011;21725;50.836;4.368;2022-10-28T09:58:21;17.95;;;5.45;;
35602;SDS011;21725;50.836;4.368;2022-10-28T10:01:00;10.02;;;4.55;;
35602;SDS011;21725;50.836;4.368;2022-10-28T10:03:33;16.40;;;5.07;;
35602;SDS011;21725;50.836;4.368;2022-10-28T10:06:01;14.98;;;5.22;;
35602;SDS011;21725;50.836;4.368;2022-10-28T10:08:59;14.30;;;4.95;;
35602;SDS011;21725;50.836;4.368;2022-10-28T10:14:35;11.05;;;5.03;;
35602;SDS011;21725;50.836;4.368;2022-10-28T10:17:29;18.33;;;5.10;;
35602;SDS011;21725;50.836;4.368;2022-10-28T10:20:20;22.25;;;6.10;;
35602;SDS011;21725;50.836;4.368;2022-10-28T10:22:56;19.77;;;5.70;;
35602;SDS011;21725;50.836;4.368;2022-10-28T10:25:42;15.60;;;4.53;;
35602;SDS011;21725;50.836;4.368;2022-10-28T10:28:22;16.25;;;4.28;;
35602;SDS011;21725;50.836;4.368;2022-10-28T10:30:53;15.80;;;4.32;;
35602;SDS011;21725;50.836;4.368;2022-10-28T10:33:38;20.40;;;8.45;;
35602;SDS011;21725;50.836;4.368;2022-10-28T10:36:19;19.60;;;5.25;;
35602;SDS011;21725;50.836;4.368;2022-10-28T10:39:01;20.15;;;5.10;;
35602;SDS011;21725;50.836;4.368;2022-10-28T10:49:35;12.43;;;4.57;;
35602;SDS011;21725;50.836;4.368;2022-10-28T10:55:02;17.45;;;6.18;;
35602;SDS011;21725;50.836;4.368;2022-10-28T10:57:53;19.85;;;4.78;;
35602;SDS011;21725;50.836;4.368;2022-10-28T11:00:51;18.73;;;5.03;;
35602;SDS011;21725;50.836;4.368;2022-10-28T11:03:24;18.90;;;6.30;;
35602;SDS011;21725;50.836;4.368;2022-10-28T11:06:17;16.30;;;4.10;;
35602;SDS011;21725;50.836;4.368;2022-10-28T11:09:01;14.60;;;4.97;;
35602;SDS011;21725;50.836;4.368;2022-10-28T11:11:49;18.55;;;5.43;;
35602;SDS011;21725;50.836;4.368;2022-10-28T11:14:30;15.52;;;5.25;;
35602;SDS011;21725;50.836;4.368;2022-10-28T11:20:20;20.52;;;5.45;;
35602;SDS011;21725;50.836;4.368;2022-10-28T11:25:52;17.58;;;4.15;;
35602;SDS011;21725;50.836;4.368;2022-10-28T11:31:17;20.45;;;6.50;;
35602;SDS011;21725;50.836;4.368;2022-10-28T11:39:43;14.45;;;5.47;;
35602;SDS011;21725;50.836;4.368;2022-10-28T11:42:22;11.30;;;5.47;;
35602;SDS011;21725;50.836;4.368;2022-10-28T11:56:33;15.13;;;5.20;;
35602;SDS011;21725;50.836;4.368;2022-10-28T12:19:31;15.60;;;3.75;;
35602;SDS011;21725;50.836;4.368;2022-10-28T12:22:25;22.55;;;5.63;;
35602;SDS011;21725;50.836;4.368;2022-10-28T12:25:05;17.85;;;5.25;;
35602;SDS011;21725;50.836;4.368;2022-10-28T12:27:53;22.10;;;4.95;;
35602;SDS011;21725;50.836;4.368;2022-10-28T12:30:49;17.00;;;4.80;;
35602;SDS011;21725;50.836;4.368;2022-10-28T12:33:21;12.82;;;3.85;;
35602;SDS011;21725;50.836;4.368;2022-10-28T12:41:39;21.07;;;5.17;;
35602;SDS011;21725;50.836;4.368;2022-10-28T12:44:12;11.65;;;4.85;;
35602;SDS011;21725;50.836;4.368;2022-10-28T12:58:31;15.60;;;4.68;;
35602;SDS011;21725;50.836;4.368;2022-10-28T13:01:35;20.83;;;4.68;;
35602;SDS011;21725;50.836;4.368;2022-10-28T13:04:12;15.85;;;4.80;;
35602;SDS011;21725;50.836;4.368;2022-10-28T13:18:09;14.70;;;4.32;;
35602;SDS011;21725;50.836;4.368;2022-10-28T13:21:22;19.60;;;4.53;;
35602;SDS011;21725;50.836;4.368;2022-10-28T13:23:57;14.25;;;5.30;;
35602;SDS011;21725;50.836;4.368;2022-10-28T13:26:55;13.05;;;4.30;;
35602;SDS011;21725;50.836;4.368;2022-10-28T13:29:42;15.25;;;4.40;;
35602;SDS011;21725;50.836;4.368;2022-10-28T13:32:27;17.48;;;5.32;;
35602;SDS011;21725;50.836;4.368;2022-10-28T13:34:55;15.18;;;4.78;;
35602;SDS011;21725;50.836;4.368;2022-10-28T13:37:48;14.45;;;4.25;;
35602;SDS011;21725;50.836;4.368;2022-10-28T13:43:14;17.83;;;5.88;;
35602;SDS011;21725;50.836;4.368;2022-10-28T13:48:53;11.45;;;4.90;;
35602;SDS011;21725;50.836;4.368;2022-10-28T14:03:22;18.25;;;4.55;;
35602;SDS011;21725;50.836;4.368;2022-10-28T14:05:59;16.57;;;4.53;;
35602;SDS011;21725;50.836;4.368;2022-10-28T14:08:47;16.50;;;5.35;;
35602;SDS011;21725;50.836;4.368;2022-10-28T14:11:35;13.05;;;4.05;;
35602;SDS011;21725;50.836;4.368;2022-10-28T14:14:14;17.50;;;5.03;;
35602;SDS011;21725;50.836;4.368;2022-10-28T14:16:44;14.93;;;4.60;;
35602;SDS011;21725;50.836;4.368;2022-10-28T14:24:50;15.00;;;4.50;;
35602;SDS011;21725;50.836;4.368;2022-10-28T14:27:18;17.48;;;5.20;;
35602;SDS011;21725;50.836;4.368;2022-10-28T14:40:49;12.82;;;4.50;;
35602;SDS011;21725;50.836;4.368;2022-10-28T14:43:36;18.77;;;4.90;;
35602;SDS011;21725;50.836;4.368;2022-10-28T14:49:19;12.10;;;4.93;;
35602;SDS011;21725;50.836;4.368;2022-10-28T14:51:55;17.27;;;5.22;;
35602;SDS011;21725;50.836;4.368;2022-10-28T14:57:31;20.27;;;5.10;;
35602;SDS011;21725;50.836;4.368;2022-10-28T15:00:23;15.80;;;4.88;;
35602;SDS011;21725;50.836;4.368;2022-10-28T15:02:56;18.08;;;5.72;;
35602;SDS011;21725;50.836;4.368;2022-10-28T15:05:38;12.07;;;5.78;;
35602;SDS011;21725;50.836;4.368;2022-10-28T15:08:37;21.13;;;4.80;;
35602;SDS011;21725;50.836;4.368;2022-10-28T15:11:12;16.95;;;6.43;;
35602;SDS011;21725;50.836;4.368;2022-10-28T15:13:53;15.93;;;4.88;;
35602;SDS011;21725;50.836;4.368;2022-10-28T15:16:22;16.88;;;5.95;;
35602;SDS011;21725;50.836;4.368;2022-10-28T15:19:04;22.70;;;4.80;;
35602;SDS011;21725;50.836;4.368;2022-10-28T15:21:33;19.52;;;4.75;;
35602;SDS011;21725;50.836;4.368;2022-10-28T15:24:11;13.95;;;4.78;;
35602;SDS011;21725;50.836;4.368;2022-10-28T15:26:47;24.20;;;5.30;;
35602;SDS011;21725;50.836;4.368;2022-10-28T15:29:22;12.05;;;4.82;;
35602;SDS011;21725;50.836;4.368;2022-10-28T15:34:45;18.65;;;4.95;;
35602;SDS011;21725;50.836;4.368;2022-10-28T15:37:41;20.75;;;4.28;;
35602;SDS011;21725;50.836;4.368;2022-10-28T15:40:33;16.13;;;5.32;;
35602;SDS011;21725;50.836;4.368;2022-10-28T15:43:16;18.85;;;5.40;;
35602;SDS011;21725;50.836;4.368;2022-10-28T15:46:08;13.88;;;4.78;;
35602;SDS011;21725;50.836;4.368;2022-10-28T15:48:37;13.88;;;5.18;;
35602;SDS011;21725;50.836;4.368;2022-10-28T15:51:16;18.45;;;5.38;;
35602;SDS011;21725;50.836;4.368;2022-10-28T15:53:43;14.85;;;4.57;;
35602;SDS011;21725;50.836;4.368;2022-10-28T15:56:32;12.27;;;5.40;;
35602;SDS011;21725;50.836;4.368;2022-10-28T15:59:43;16.13;;;5.50;;
35602;SDS011;21725;50.836;4.368;2022-10-28T16:11:27;12.80;;;4.38;;
35602;SDS011;21725;50.836;4.368;2022-10-28T16:17:29;16.42;;;7.03;;
35602;SDS011;21725;50.836;4.368;2022-10-28T16:20:19;15.85;;;5.85;;
35602;SDS011;21725;50.836;4.368;2022-10-28T16:23:00;18.38;;;5.93;;
35602;SDS011;21725;50.836;4.368;2022-10-28T16:25:29;14.23;;;6.55;;
35602;SDS011;21725;50.836;4.368;2022-10-28T16:28:14;16.77;;;4.50;;
35602;SDS011;21725;50.836;4.368;2022-10-28T16:31:01;20.65;;;5.97;;
35602;SDS011;21725;50.836;4.368;2022-10-28T16:33:33;21.60;;;5.93;;
35602;SDS011;21725;50.836;4.368;2022-10-28T16:36:11;13.93;;;6.35;;
35602;SDS011;21725;50.836;4.368;2022-10-28T16:38:41;21.48;;;8.88;;
35602;SDS011;21725;50.836;4.368;2022-10-28T16:41:31;17.65;;;5.70;;
35602;SDS011;21725;50.836;4.368;2022-10-28T16:43:57;19.35;;;5.60;;
35602;SDS011;21725;50.836;4.368;2022-10-28T16:48:59;14.60;;;5.65;;
35602;SDS011;21725;50.836;4.368;2022-10-28T16:51:31;17.17;;;6.57;;
35602;SDS011;21725;50.836;4.368;2022-10-28T16:54:27;23.25;;;7.13;;
35602;SDS011;21725;50.836;4.368;2022-10-28T16:57:05;12.90;;;6.00;;
35602;SDS011;21725;50.836;4.368;2022-10-28T16:59:36;22.45;;;5.13;;
35602;SDS011;21725;50.836;4.368;2022-10-28T17:05:41;15.05;;;6.18;;
35602;SDS011;21725;50.836;4.368;2022-10-28T17:08:26;20.50;;;5.15;;
35602;SDS011;21725;50.836;4.368;2022-10-28T17:10:55;14.57;;;5.55;;
35602;SDS011;21725;50.836;4.368;2022-10-28T17:13:30;17.83;;;5.97;;
35602;SDS011;21725;50.836;4.368;2022-10-28T17:16:25;17.00;;;6.80;;
35602;SDS011;21725;50.836;4.368;2022-10-28T17:18:53;22.05;;;5.65;;
35602;SDS011;21725;50.836;4.368;2022-10-28T17:21:31;23.20;;;7.55;;
35602;SDS011;21725;50.836;4.368;2022-10-28T17:23:57;24.52;;;7.78;;
35602;SDS011;21725;50.836;4.368;2022-10-28T17:26:36;19.00;;;7.57;;
35602;SDS011;21725;50.836;4.368;2022-10-28T17:29:08;17.02;;;6.65;;
35602;SDS011;21725;50.836;4.368;2022-10-28T17:31:34;17.35;;;7.03;;
35602;SDS011;21725;50.836;4.368;2022-10-28T17:34:05;18.92;;;6.13;;
35602;SDS011;21725;50.836;4.368;2022-10-28T17:36:35;20.20;;;6.57;;
35602;SDS011;21725;50.836;4.368;2022-10-28T17:39:15;15.13;;;6.25;;
35602;SDS011;21725;50.836;4.368;2022-10-28T17:41:43;16.17;;;7.70;;
35602;SDS011;21725;50.836;4.368;2022-10-28T17:44:31;16.27;;;6.55;;
35602;SDS011;21725;50.836;4.368;2022-10-28T17:47:07;19.65;;;7.22;;
35602;SDS011;21725;50.836;4.368;2022-10-28T17:49:39;13.32;;;6.72;;
35602;SDS011;21725;50.836;4.368;2022-10-28T17:52:10;18.60;;;6.57;;
35602;SDS011;21725;50.836;4.368;2022-10-28T17:54:44;18.50;;;6.00;;
35602;SDS011;21725;50.836;4.368;2022-10-28T17:57:33;16.77;;;8.05;;
35602;SDS011;21725;50.836;4.368;2022-10-28T18:00:24;18.25;;;5.85;;
35602;SDS011;21725;50.836;4.368;2022-10-28T18:02:59;16.70;;;6.47;;
35602;SDS011;21725;50.836;4.368;2022-10-28T18:05:27;22.70;;;9.25;;
35602;SDS011;21725;50.836;4.368;2022-10-28T18:08:06;18.38;;;7.53;;
35602;SDS011;21725;50.836;4.368;2022-10-28T18:14:14;15.07;;;6.28;;
35602;SDS011;21725;50.836;4.368;2022-10-28T18:17:10;25.75;;;10.75;;
35602;SDS011;21725;50.836;4.368;2022-10-28T18:19:48;21.23;;;7.45;;
35602;SDS011;21725;50.836;4.368;2022-10-28T18:22:34;18.05;;;7.68;;
35602;SDS011;21725;50.836;4.368;2022-10-28T18:25:16;18.92;;;7.70;;
35602;SDS011;21725;50.836;4.368;2022-10-28T18:27:57;16.83;;;6.88;;
35602;SDS011;21725;50.836;4.368;2022-10-28T18:30:30;20.67;;;9.23;;
35602;SDS011;21725;50.836;4.368;2022-10-28T18:33:15;17.67;;;8.50;;
35602;SDS011;21725;50.836;4.368;2022-10-28T18:35:44;16.13;;;7.68;;
35602;SDS011;21725;50.836;4.368;2022-10-28T18:38:22;23.13;;;8.60;;
35602;SDS011;21725;50.836;4.368;2022-10-28T18:40:52;23.00;;;9.55;;
35602;SDS011;21725;50.836;4.368;2022-10-28T18:43:18;30.65;;;11.80;;
35602;SDS011;21725;50.836;4.368;2022-10-28T18:45:46;27.57;;;11.53;;
35602;SDS011;21725;50.836;4.368;2022-10-28T18:48:12;23.15;;;15.15;;
35602;SDS011;21725;50.836;4.368;2022-10-28T18:50:41;24.83;;;10.38;;
35602;SDS011;21725;50.836;4.368;2022-10-28T18:53:39;28.15;;;10.63;;
35602;SDS011;21725;50.836;4.368;2022-10-28T18:56:09;23.17;;;11.02;;
35602;SDS011;21725;50.836;4.368;2022-10-28T18:58:38;24.45;;;9.20;;
35602;SDS011;21725;50.836;4.368;2022-10-28T19:03:31;25.10;;;9.80;;
35602;SDS011;21725;50.836;4.368;2022-10-28T19:06:00;21.98;;;7.93;;
35602;SDS011;21725;50.836;4.368;2022-10-28T19:08:32;20.73;;;8.85;;
35602;SDS011;21725;50.836;4.368;2022-10-28T19:10:59;21.70;;;8.05;;
35602;SDS011;21725;50.836;4.368;2022-10-28T19:13:26;20.02;;;8.90;;
35602;SDS011;21725;50.836;4.368;2022-10-28T19:15:52;17.45;;;8.43;;
35602;SDS011;21725;50.836;4.368;2022-10-28T19:18:19;25.08;;;9.77;;
35602;SDS011;21725;50.836;4.368;2022-10-28T19:20:46;20.65;;;8.45;;
35602;SDS011;21725;50.836;4.368;2022-10-28T19:23:12;21.98;;;8.05;;
35602;SDS011;21725;50.836;4.368;2022-10-28T19:25:38;19.48;;;8.07;;